Saint Amant, Louisiana
Current Conditions -  °F | °C
As of 6:35 PM on Sunday 21 Dec 2014 (Local Time) from KL38 Reporting Station
Scattered Clouds Scattered Clouds  
Wind Chill: 55°   Ceiling: Unl
Heat Index: 55°   Visibility: 10mi
Dew Point: 54°   Wind: 0mph
Humidity: 98%   Direction: NA
Pressure: 29.97"   Gusts: NA
Location:  30.22°N, 90.87°W
Report Text: KL38 220035Z AUTO 00000KT 10SM SCT110 13/12 A2997 RMK AO2 T01250122
Loading
Personal Weather Stations






























Interactive Weather Map New forecast layout! Learn more

10-Day Weather Forecast

Advertisements
Track Severe Weather on mobile